Time;durP1;ratioP1;P1;durP2;ratioP2;P2;SDS_P1;SDS_P2;PMS_P1;PMS_P2;Temp;Humidity;BMP_temperature;BMP_pressure;BME280_temperature;BME280_humidity;BME280_pressure;Samples;Min_cycle;Max_cycle;Signal;HPM_P1;HPM_P2
2021/12/11 00:01:16;;;;;;;40.13;24.52;;;5.90;89.60;;;;;;5019912;28;20171;-84
2021/12/11 00:03:45;;;;;;;40.83;24.05;;;5.90;89.50;;;;;;5034649;28;20181;-84
2021/12/11 00:06:18;;;;;;;43.30;24.77;;;6.00;89.50;;;;;;5039768;28;20684;-83
2021/12/11 00:08:47;;;;;;;40.30;23.70;;;6.00;89.50;;;;;;5039097;28;20251;-84
2021/12/11 00:11:19;;;;;;;37.53;22.60;;;5.90;89.50;;;;;;5041402;28;20178;-84
2021/12/11 00:13:46;;;;;;;47.88;22.40;;;5.90;89.50;;;;;;5037529;28;20162;-84
2021/12/11 00:16:17;;;;;;;36.78;22.98;;;6.00;89.50;;;;;;5038372;28;20166;-84
2021/12/11 00:18:43;;;;;;;39.22;21.63;;;6.00;89.50;;;;;;5038502;28;20170;-84
2021/12/11 00:21:16;;;;;;;39.00;21.38;;;6.00;89.40;;;;;;5037518;28;20272;-84
2021/12/11 00:23:55;;;;;;;37.22;21.38;;;6.10;89.50;;;;;;5038496;28;20186;-84
2021/12/11 00:26:28;;;;;;;39.33;22.70;;;6.10;89.40;;;;;;5039600;28;20186;-83
2021/12/11 00:28:54;;;;;;;50.70;23.02;;;6.20;89.40;;;;;;5037913;28;20248;-84
2021/12/11 00:31:20;;;;;;;41.40;21.93;;;6.20;89.30;;;;;;5037310;28;20174;-83
2021/12/11 00:33:48;;;;;;;41.57;21.40;;;6.30;89.20;;;;;;5019780;28;20724;-84
2021/12/11 00:36:18;;;;;;;35.65;19.63;;;6.20;89.10;;;;;;5017845;28;20421;-84
2021/12/11 00:38:48;;;;;;;34.78;20.50;;;6.20;89.10;;;;;;5017831;28;20540;-84
2021/12/11 00:41:18;;;;;;;38.60;21.20;;;6.10;89.10;;;;;;5015706;28;20273;-84
2021/12/11 00:43:45;;;;;;;36.92;21.23;;;6.20;89.10;;;;;;5013982;28;20667;-83
2021/12/11 00:46:15;;;;;;;34.45;21.67;;;6.10;89.00;;;;;;5015925;28;20174;-84
2021/12/11 00:48:42;;;;;;;36.22;21.25;;;6.10;89.00;;;;;;5022962;28;20190;-84
2021/12/11 00:51:19;;;;;;;40.58;21.83;;;6.00;89.00;;;;;;5035186;28;20355;-84
2021/12/11 00:53:50;;;;;;;39.17;21.88;;;6.20;89.00;;;;;;5020991;28;20193;-84
2021/12/11 00:56:21;;;;;;;39.40;22.52;;;6.10;89.00;;;;;;5014391;28;20540;-84
2021/12/11 00:58:50;;;;;;;37.58;20.95;;;6.10;89.00;;;;;;5015160;28;20216;-83
2021/12/11 01:01:30;;;;;;;38.28;21.85;;;5.90;88.80;;;;;;5015109;28;20664;-84
2021/12/11 01:03:59;;;;;;;36.55;21.45;;;6.00;89.00;;;;;;5015484;28;20206;-84
2021/12/11 01:06:37;;;;;;;40.28;24.15;;;6.10;89.00;;;;;;5013905;28;20244;-84
2021/12/11 01:09:14;;;;;;;40.65;22.40;;;6.20;89.00;;;;;;5015978;28;20548;-84
2021/12/11 01:11:54;;;;;;;43.00;21.10;;;6.40;89.00;;;;;;5018685;28;20177;-83
2021/12/11 01:14:57;;;;;;;38.63;22.58;;;6.40;88.90;;;;;;5031434;28;20202;-84
2021/12/11 01:17:36;;;;;;;40.22;21.13;;;6.30;89.00;;;;;;5038982;28;20268;-84
2021/12/11 01:20:07;;;;;;;40.40;20.38;;;6.40;88.90;;;;;;5038935;28;20690;-84
2021/12/11 01:22:36;;;;;;;36.80;19.30;;;6.60;88.90;;;;;;5039732;28;20177;-84
2021/12/11 01:25:13;;;;;;;40.35;21.65;;;6.40;88.80;;;;;;5038405;28;20201;-84
2021/12/11 01:27:44;;;;;;;36.72;19.63;;;6.30;88.80;;;;;;5038878;28;20275;-84
2021/12/11 01:30:14;;;;;;;35.72;20.15;;;6.30;88.90;;;;;;5036616;28;20271;-84
2021/12/11 01:32:42;;;;;;;32.88;18.73;;;6.20;88.90;;;;;;5039730;28;20158;-84
2021/12/11 01:35:10;;;;;;;38.08;21.35;;;6.30;89.00;;;;;;5028128;28;20563;-84
2021/12/11 01:37:41;;;;;;;35.75;20.80;;;6.40;89.00;;;;;;5020853;28;20205;-84
2021/12/11 01:40:10;;;;;;;32.10;18.60;;;6.60;88.90;;;;;;5023650;28;20181;-84
2021/12/11 01:42:36;;;;;;;41.20;20.60;;;6.50;88.70;;;;;;5037353;28;20550;-84
2021/12/11 01:45:07;;;;;;;36.25;20.65;;;6.40;88.70;;;;;;5039144;28;20296;-84
2021/12/11 01:47:36;;;;;;;37.95;21.10;;;6.40;88.80;;;;;;5038973;28;20744;-84
2021/12/11 01:50:19;;;;;;;40.80;20.30;;;6.50;89.00;;;;;;5039081;28;20181;-85
2021/12/11 01:52:57;;;;;;;30.20;18.70;;;6.50;89.00;;;;;;5025611;28;20178;-84
2021/12/11 01:55:31;;;;;;;32.50;18.80;;;6.40;89.00;;;;;;5037497;28;20265;-84
2021/12/11 01:57:58;;;;;;;33.00;18.92;;;6.70;89.00;;;;;;5037251;28;20193;-84
2021/12/11 02:00:35;;;;;;;35.30;19.65;;;6.60;88.70;;;;;;5040409;28;20182;-84
2021/12/11 02:03:04;;;;;;;31.25;17.80;;;6.50;88.90;;;;;;5041356;28;20166;-83
2021/12/11 02:05:33;;;;;;;33.22;18.02;;;6.40;88.90;;;;;;5041327;28;20255;-84
2021/12/11 02:08:03;;;;;;;26.75;17.10;;;6.40;89.00;;;;;;5042222;28;20205;-84
2021/12/11 02:10:34;;;;;;;27.50;13.93;;;6.30;89.10;;;;;;5041127;28;20251;-84
2021/12/11 02:13:06;;;;;;;25.50;13.73;;;6.40;89.20;;;;;;5041528;28;20158;-83
2021/12/11 02:15:37;;;;;;;28.17;11.35;;;6.50;89.30;;;;;;5040154;28;20202;-84
2021/12/11 02:18:10;;;;;;;18.50;8.77;;;6.40;89.20;;;;;;5040899;28;20635;-84
2021/12/11 02:20:42;;;;;;;16.10;9.13;;;6.30;89.40;;;;;;5041062;28;20197;-84
2021/12/11 02:23:08;;;;;;;16.75;7.47;;;6.40;89.60;;;;;;5042091;28;20292;-84
2021/12/11 02:25:42;;;;;;;17.48;9.40;;;6.40;89.70;;;;;;5040233;28;20205;-84
2021/12/11 02:28:12;;;;;;;18.27;6.72;;;6.40;89.80;;;;;;5040652;28;20205;-84
2021/12/11 02:31:27;;;;;;;15.35;6.38;;;6.30;90.20;;;;;;5041154;28;20185;-83
2021/12/11 02:33:58;;;;;;;16.27;5.85;;;6.40;90.40;;;;;;5020001;28;20214;-83
2021/12/11 02:36:28;;;;;;;9.63;6.30;;;6.40;90.50;;;;;;5004253;28;20222;-83
2021/12/11 02:39:33;;;;;;;14.52;5.43;;;6.50;90.50;;;;;;5023226;28;20181;-83
2021/12/11 02:42:13;;;;;;;13.93;5.38;;;6.50;90.30;;;;;;5037363;28;20276;-84
2021/12/11 02:45:04;;;;;;;10.25;5.15;;;6.50;90.00;;;;;;5040316;28;20193;-84
2021/12/11 02:47:42;;;;;;;11.93;5.55;;;6.50;89.80;;;;;;5040764;28;20690;-84
2021/12/11 02:50:31;;;;;;;19.90;6.13;;;6.50;89.70;;;;;;5041356;28;20170;-84
2021/12/11 02:53:05;;;;;;;7.85;5.75;;;6.50;89.50;;;;;;5033003;28;20668;-84
2021/12/11 02:55:38;;;;;;;11.00;5.97;;;6.50;89.30;;;;;;5045690;28;20225;-83
2021/12/11 02:58:17;;;;;;;12.85;6.03;;;6.70;89.30;;;;;;5023044;28;20190;-84
2021/12/11 03:00:58;;;;;;;16.30;6.95;;;6.60;88.70;;;;;;5023973;28;20265;-84
2021/12/11 03:03:34;;;;;;;14.40;6.50;;;6.70;88.70;;;;;;5022535;28;20186;-84
2021/12/11 03:08:58;;;;;;;14.55;8.05;;;6.80;88.50;;;;;;5026615;28;20301;-85
2021/12/11 03:11:29;;;;;;;10.48;7.78;;;6.70;88.10;;;;;;5021286;28;20241;-84
2021/12/11 03:13:55;;;;;;;12.68;7.40;;;6.70;88.20;;;;;;5036440;28;20208;-83
2021/12/11 03:16:25;;;;;;;12.15;8.38;;;6.70;88.30;;;;;;5039865;28;20257;-84
2021/12/11 03:18:52;;;;;;;15.85;9.23;;;6.80;88.10;;;;;;5022485;28;20171;-84
2021/12/11 03:21:19;;;;;;;15.43;9.30;;;6.90;88.20;;;;;;5022699;28;20194;-84
2021/12/11 03:23:44;;;;;;;13.35;8.35;;;6.80;88.00;;;;;;5023017;28;20178;-84
2021/12/11 03:26:11;;;;;;;18.10;9.63;;;6.70;88.10;;;;;;5034290;28;20185;-84
2021/12/11 03:28:37;;;;;;;16.40;9.55;;;6.70;88.30;;;;;;5039809;28;20571;-83
2021/12/11 03:31:05;;;;;;;17.85;10.75;;;6.70;88.30;;;;;;5040853;28;20241;-83
2021/12/11 03:33:35;;;;;;;19.20;8.90;;;6.60;88.50;;;;;;5041805;28;20159;-85
2021/12/11 03:36:03;;;;;;;19.10;10.77;;;6.60;88.50;;;;;;5040028;28;20189;-83
2021/12/11 03:38:30;;;;;;;17.08;10.40;;;6.70;88.60;;;;;;5040719;28;20163;-83
2021/12/11 03:40:57;;;;;;;17.73;10.80;;;6.80;88.50;;;;;;5053846;28;20224;-84
2021/12/11 03:43:25;;;;;;;22.08;11.27;;;6.80;88.40;;;;;;5030637;28;20202;-83
2021/12/11 03:45:54;;;;;;;16.23;10.68;;;6.80;88.40;;;;;;5045718;28;20193;-84
2021/12/11 03:48:28;;;;;;;15.85;10.45;;;6.90;88.40;;;;;;5037669;28;20202;-83
2021/12/11 03:50:55;;;;;;;17.17;11.05;;;6.80;88.20;;;;;;5025155;28;20282;-84
2021/12/11 03:53:21;;;;;;;24.05;12.40;;;6.70;88.30;;;;;;5021136;28;20273;-85
2021/12/11 03:56:00;;;;;;;18.15;10.73;;;6.80;88.30;;;;;;5030396;28;20202;-83
2021/12/11 03:58:26;;;;;;;20.65;11.80;;;6.90;88.40;;;;;;5029370;28;20265;-84
2021/12/11 04:01:06;;;;;;;20.75;11.88;;;7.00;88.20;;;;;;5031776;28;20233;-84
2021/12/11 04:03:35;;;;;;;21.60;12.18;;;7.00;88.00;;;;;;5028214;28;20187;-84
2021/12/11 04:06:05;;;;;;;17.33;12.15;;;7.00;87.90;;;;;;5031928;28;20181;-84
2021/12/11 04:08:40;;;;;;;15.90;10.65;;;7.10;87.90;;;;;;5035455;28;20327;-84
2021/12/11 04:11:14;;;;;;;25.38;12.95;;;7.10;87.70;;;;;;5037182;28;20166;-84
2021/12/11 04:13:40;;;;;;;21.50;12.40;;;7.20;87.60;;;;;;5035076;28;20162;-84
2021/12/11 04:16:12;;;;;;;16.92;9.80;;;7.20;87.50;;;;;;5050177;28;20185;-83
2021/12/11 04:18:38;;;;;;;16.63;11.02;;;7.20;87.30;;;;;;5043129;28;20150;-83
2021/12/11 04:21:04;;;;;;;23.17;12.18;;;6.90;86.90;;;;;;5038997;28;20202;-82
2021/12/11 04:23:31;;;;;;;26.63;12.38;;;6.90;87.00;;;;;;5038756;28;20171;-85
2021/12/11 04:25:57;;;;;;;30.08;11.90;;;7.00;87.20;;;;;;5024599;28;20187;-84
2021/12/11 04:28:26;;;;;;;23.05;10.00;;;7.20;87.30;;;;;;5020857;28;20213;-84
2021/12/11 04:31:01;;;;;;;20.75;10.20;;;7.20;87.20;;;;;;5022511;28;20210;-84
2021/12/11 04:33:27;;;;;;;25.33;10.57;;;7.20;87.10;;;;;;5028618;28;20155;-84
2021/12/11 04:35:53;;;;;;;15.57;9.90;;;7.10;87.00;;;;;;5036693;28;20205;-84
2021/12/11 04:38:19;;;;;;;22.33;10.57;;;7.00;86.90;;;;;;5054400;28;20210;-83
2021/12/11 04:40:50;;;;;;;22.07;11.00;;;7.10;87.00;;;;;;5057241;28;20205;-83
2021/12/11 04:43:20;;;;;;;21.42;9.73;;;7.00;86.80;;;;;;5056591;28;20401;-83
2021/12/11 04:45:58;;;;;;;20.38;9.25;;;7.00;86.90;;;;;;5045139;28;20217;-83
2021/12/11 04:48:58;;;;;;;21.83;8.13;;;6.90;87.00;;;;;;5038722;28;20185;-84
2021/12/11 04:59:34;;;;;;;10.98;6.70;;;6.70;87.60;;;;;;5020027;28;20576;-84
2021/12/11 05:10:28;;;;;;;11.32;6.28;;;6.70;88.10;;;;;;5039001;28;20177;-84
2021/12/11 05:12:57;;;;;;;15.32;7.00;;;6.60;88.20;;;;;;5038863;28;20527;-85
2021/12/11 05:15:28;;;;;;;12.45;5.05;;;6.60;88.30;;;;;;5036675;28;20202;-84
2021/12/11 05:17:56;;;;;;;16.25;5.70;;;6.60;88.50;;;;;;5021136;28;20202;-84
2021/12/11 05:20:26;;;;;;;18.77;4.93;;;6.60;88.70;;;;;;5036940;28;20206;-84
2021/12/11 05:22:52;;;;;;;12.70;4.13;;;6.70;88.90;;;;;;5038242;28;20641;-84
2021/12/11 05:25:17;;;;;;;15.27;4.07;;;6.60;88.80;;;;;;5036527;28;20220;-84
2021/12/11 05:27:45;;;;;;;15.60;2.90;;;6.60;88.90;;;;;;5037722;28;20202;-84
2021/12/11 05:30:21;;;;;;;10.45;3.45;;;6.60;89.00;;;;;;5020545;28;20500;-84
2021/12/11 05:32:48;;;;;;;19.58;3.83;;;6.70;89.10;;;;;;5036058;28;20178;-84
2021/12/11 05:35:15;;;;;;;26.63;4.40;;;6.50;89.20;;;;;;5031617;28;20197;-83
2021/12/11 05:37:41;;;;;;;20.13;3.80;;;6.60;89.40;;;;;;5017155;28;20567;-84
2021/12/11 05:40:09;;;;;;;20.60;3.70;;;6.50;89.50;;;;;;5017903;28;20189;-84
2021/12/11 05:42:36;;;;;;;13.48;3.88;;;6.50;89.60;;;;;;5019795;28;20182;-84
2021/12/11 05:45:04;;;;;;;21.45;3.92;;;6.50;89.60;;;;;;5017065;28;20635;-84
2021/12/11 05:47:29;;;;;;;19.95;4.20;;;6.50;89.70;;;;;;5018769;28;20226;-84
2021/12/11 05:49:57;;;;;;;30.13;4.17;;;6.50;89.70;;;;;;5021875;28;20653;-83
2021/12/11 05:52:23;;;;;;;28.17;3.90;;;6.60;89.70;;;;;;5035222;28;20414;-84
2021/12/11 05:54:50;;;;;;;11.75;4.35;;;6.50;89.60;;;;;;5017789;28;20213;-84
2021/12/11 05:57:20;;;;;;;21.48;3.53;;;6.70;89.60;;;;;;5019058;28;20178;-84
2021/12/11 05:59:47;;;;;;;33.05;3.85;;;6.70;89.40;;;;;;5017487;28;20190;-84
2021/12/11 06:02:26;;;;;;;20.80;5.88;;;6.70;89.20;;;;;;5018271;28;20186;-84
2021/12/11 06:04:58;;;;;;;15.07;4.18;;;6.80;89.10;;;;;;5016992;28;20643;-84
2021/12/11 06:07:28;;;;;;;9.30;3.00;;;6.80;88.90;;;;;;5018450;28;20199;-84
2021/12/11 06:10:02;;;;;;;14.98;4.75;;;6.80;88.80;;;;;;5017478;28;20615;-84
2021/12/11 06:12:29;;;;;;;18.48;4.63;;;6.80;88.60;;;;;;5024926;28;20261;-85
2021/12/11 06:14:55;;;;;;;24.20;5.15;;;6.80;88.30;;;;;;5015923;28;20199;-85
2021/12/11 06:17:25;;;;;;;17.08;4.32;;;6.70;88.10;;;;;;5017362;28;20287;-85
2021/12/11 06:19:53;;;;;;;11.60;3.90;;;6.60;87.90;;;;;;5017539;28;20202;-85
2021/12/11 06:22:25;;;;;;;29.52;4.72;;;6.60;87.80;;;;;;5036522;28;20580;-84
2021/12/11 06:24:52;;;;;;;31.08;4.90;;;6.60;87.70;;;;;;5020475;28;20205;-84
2021/12/11 06:27:18;;;;;;;22.98;3.80;;;6.50;87.80;;;;;;5039008;28;20201;-84
2021/12/11 06:29:44;;;;;;;21.77;6.33;;;6.50;87.80;;;;;;5038904;28;20185;-84
2021/12/11 06:32:10;;;;;;;11.40;3.73;;;6.50;87.70;;;;;;5039216;28;20743;-84
2021/12/11 06:34:36;;;;;;;14.30;3.43;;;6.40;87.70;;;;;;5031493;28;20999;-84
2021/12/11 06:37:05;;;;;;;22.67;4.68;;;6.40;87.70;;;;;;5022496;28;20451;-84
2021/12/11 06:39:31;;;;;;;13.77;3.67;;;6.30;87.70;;;;;;5036988;28;20264;-84
2021/12/11 06:42:00;;;;;;;17.35;4.07;;;6.20;87.70;;;;;;5037323;28;20166;-84
2021/12/11 06:44:29;;;;;;;26.15;3.30;;;6.10;87.80;;;;;;5037885;28;20194;-84
2021/12/11 06:47:00;;;;;;;15.35;3.75;;;6.20;88.00;;;;;;5044278;28;20185;-84
2021/12/11 06:49:29;;;;;;;13.20;3.13;;;6.20;88.10;;;;;;5047842;28;20190;-85
2021/12/11 06:51:55;;;;;;;14.52;4.60;;;6.20;88.10;;;;;;5031043;28;20188;-85
2021/12/11 06:54:21;;;;;;;14.55;4.47;;;6.10;88.10;;;;;;5026800;28;20265;-85
2021/12/11 06:56:48;;;;;;;19.70;3.65;;;6.10;88.20;;;;;;5021168;28;20183;-85
2021/12/11 06:59:15;;;;;;;8.63;4.00;;;6.10;88.30;;;;;;5019345;28;20642;-84
2021/12/11 07:01:41;;;;;;;20.50;4.22;;;6.10;88.30;;;;;;5018422;28;20202;-85
2021/12/11 07:04:09;;;;;;;16.48;4.18;;;6.20;88.30;;;;;;5024860;28;20197;-85
2021/12/11 07:06:39;;;;;;;10.95;3.50;;;6.10;88.30;;;;;;5039147;28;20174;-85
2021/12/11 07:09:07;;;;;;;20.52;3.88;;;6.10;88.20;;;;;;5038094;28;20237;-84
2021/12/11 07:11:34;;;;;;;13.55;3.22;;;6.10;88.30;;;;;;5033484;28;20646;-84
2021/12/11 07:13:59;;;;;;;14.07;4.25;;;6.00;88.20;;;;;;5016751;28;20215;-85
2021/12/11 07:16:25;;;;;;;18.73;3.90;;;6.00;88.40;;;;;;5016467;28;20175;-84
2021/12/11 07:18:51;;;;;;;16.40;4.27;;;5.90;88.40;;;;;;5025404;28;20220;-84
2021/12/11 07:21:18;;;;;;;15.40;4.40;;;6.00;88.50;;;;;;5030062;28;20480;-82
2021/12/11 07:23:48;;;;;;;20.20;3.95;;;6.00;88.60;;;;;;5016922;28;20182;-80
2021/12/11 07:26:28;;;;;;;13.27;4.13;;;6.00;88.60;;;;;;5021267;28;20666;-80
2021/12/11 07:28:56;;;;;;;16.85;5.25;;;6.00;88.70;;;;;;5034819;28;20193;-81
2021/12/11 07:31:23;;;;;;;18.73;4.60;;;6.00;88.80;;;;;;5040084;28;20197;-80
2021/12/11 07:33:50;;;;;;;11.30;5.32;;;6.00;88.80;;;;;;5037500;28;20206;-80
2021/12/11 07:36:17;;;;;;;12.65;4.30;;;6.00;88.70;;;;;;5019040;28;20175;-80
2021/12/11 07:38:43;;;;;;;26.75;5.72;;;6.00;88.70;;;;;;5019016;28;20312;-80
2021/12/11 07:41:11;;;;;;;16.37;5.00;;;6.00;88.60;;;;;;5018579;28;20642;-80
2021/12/11 07:43:39;;;;;;;18.63;4.90;;;5.90;88.60;;;;;;5019957;28;20417;-81
2021/12/11 07:46:07;;;;;;;24.42;5.05;;;5.90;88.70;;;;;;5018907;28;20210;-80
2021/12/11 07:48:33;;;;;;;18.38;5.30;;;5.80;88.60;;;;;;5024878;28;20186;-80
2021/12/11 07:51:00;;;;;;;24.55;5.30;;;5.80;88.80;;;;;;5039570;28;20186;-80
2021/12/11 07:53:26;;;;;;;35.28;5.93;;;5.90;89.00;;;;;;5027498;28;20175;-80
2021/12/11 07:55:52;;;;;;;44.93;6.60;;;5.90;89.00;;;;;;5017039;28;20268;-79
2021/12/11 07:58:19;;;;;;;27.05;5.05;;;5.90;88.80;;;;;;5018494;28;20444;-80
2021/12/11 08:00:47;;;;;;;17.25;5.05;;;5.90;88.80;;;;;;5018667;28;20186;-80
2021/12/11 08:03:14;;;;;;;33.28;5.25;;;5.90;88.80;;;;;;5018210;28;20189;-80
2021/12/11 08:05:44;;;;;;;21.13;6.43;;;6.00;88.80;;;;;;5018290;28;20218;-80
2021/12/11 08:08:11;;;;;;;10.90;5.03;;;6.00;88.80;;;;;;5017821;28;20203;-79
2021/12/11 08:10:40;;;;;;;15.00;5.25;;;6.00;88.70;;;;;;5019624;28;20203;-79
2021/12/11 08:13:08;;;;;;;17.13;5.25;;;6.10;88.70;;;;;;5028761;28;20178;-80
2021/12/11 08:15:35;;;;;;;13.70;4.93;;;6.20;88.60;;;;;;5038244;28;20213;-79
2021/12/11 08:18:01;;;;;;;19.05;5.22;;;6.10;88.50;;;;;;5038355;28;20201;-80
2021/12/11 08:20:31;;;;;;;20.48;5.47;;;6.20;88.40;;;;;;5038355;28;20293;-80
2021/12/11 08:22:57;;;;;;;17.48;5.00;;;6.20;88.20;;;;;;5036331;28;20189;-80
2021/12/11 08:25:26;;;;;;;17.08;5.72;;;6.30;88.20;;;;;;5020926;28;20635;-80
2021/12/11 08:27:53;;;;;;;12.13;5.28;;;6.30;88.10;;;;;;5038423;28;20198;-80
2021/12/11 08:30:19;;;;;;;20.63;4.78;;;6.30;87.90;;;;;;5037103;28;20178;-79
2021/12/11 08:32:45;;;;;;;16.33;7.03;;;6.40;87.80;;;;;;5039121;28;20242;-80
2021/12/11 08:35:12;;;;;;;17.85;6.00;;;6.40;87.70;;;;;;5026816;28;20198;-80
2021/12/11 08:37:41;;;;;;;14.23;5.18;;;6.40;87.40;;;;;;5018303;28;20174;-80
2021/12/11 08:40:12;;;;;;;11.02;4.68;;;6.40;87.30;;;;;;5016737;28;20201;-80
2021/12/11 08:42:38;;;;;;;15.68;5.07;;;6.60;87.20;;;;;;5017273;28;20175;-80
2021/12/11 08:45:10;;;;;;;11.68;4.10;;;6.50;87.00;;;;;;5017307;28;20289;-79
2021/12/11 08:47:41;;;;;;;15.30;4.88;;;6.50;86.90;;;;;;5017729;28;20658;-80
2021/12/11 08:50:10;;;;;;;16.92;4.45;;;6.30;86.70;;;;;;5034430;28;20182;-79
2021/12/11 08:52:39;;;;;;;8.35;4.05;;;6.30;86.60;;;;;;5032918;28;20197;-80
2021/12/11 08:55:10;;;;;;;25.58;6.22;;;6.30;86.80;;;;;;5017066;28;20195;-80
2021/12/11 08:57:39;;;;;;;13.80;4.32;;;6.30;86.60;;;;;;5017105;28;20240;-80
2021/12/11 09:00:36;;;;;;;15.60;5.40;;;6.40;86.60;;;;;;5018159;28;20507;-81
2021/12/11 09:03:15;;;;;;;16.23;4.55;;;6.40;86.50;;;;;;5019264;28;20193;-80
2021/12/11 09:05:52;;;;;;;11.32;4.55;;;6.50;86.60;;;;;;5016070;28;20210;-81
2021/12/11 09:08:35;;;;;;;8.68;4.55;;;6.50;86.40;;;;;;5019362;28;20186;-81
2021/12/11 09:11:15;;;;;;;24.85;4.90;;;6.50;86.40;;;;;;5018088;28;20189;-81
2021/12/11 09:13:57;;;;;;;14.15;4.57;;;6.60;86.20;;;;;;5033085;28;20166;-80
2021/12/11 09:16:48;;;;;;;29.23;5.93;;;6.60;86.10;;;;;;5037407;28;20644;-80
2021/12/11 09:19:29;;;;;;;11.40;4.30;;;6.60;85.90;;;;;;5040287;28;20170;-81
2021/12/11 09:21:58;;;;;;;15.73;3.90;;;6.60;85.70;;;;;;5046576;28;20225;-81
2021/12/11 09:24:34;;;;;;;8.65;4.45;;;6.70;85.60;;;;;;5049497;28;20185;-80
2021/12/11 09:27:23;;;;;;;12.10;4.22;;;6.80;85.50;;;;;;5051589;28;20192;-81
2021/12/11 09:29:57;;;;;;;12.10;5.10;;;6.80;85.30;;;;;;5033919;28;20182;-81
2021/12/11 09:32:30;;;;;;;19.42;5.10;;;6.90;85.20;;;;;;5021466;28;20192;-81
2021/12/11 09:35:03;;;;;;;17.50;6.85;;;6.90;85.00;;;;;;5024636;28;20202;-81
2021/12/11 09:37:30;;;;;;;11.52;5.50;;;6.90;84.90;;;;;;5038662;28;20590;-81
2021/12/11 09:40:19;;;;;;;16.73;6.80;;;7.00;84.80;;;;;;5038185;28;20539;-78
2021/12/11 09:42:44;;;;;;;13.50;5.25;;;7.00;84.60;;;;;;5033217;28;20180;-78
2021/12/11 09:45:23;;;;;;;8.93;4.63;;;7.10;84.50;;;;;;5036032;28;20261;-80
2021/12/11 09:48:03;;;;;;;11.85;6.50;;;7.30;85.40;;;;;;5036093;28;20201;-81
2021/12/11 09:50:42;;;;;;;19.83;6.00;;;7.30;86.10;;;;;;5037228;28;20329;-80
2021/12/11 09:53:08;;;;;;;11.50;5.47;;;7.40;86.00;;;;;;5029649;28;20174;-80
2021/12/11 09:55:37;;;;;;;15.23;5.53;;;7.50;86.00;;;;;;5023230;28;20194;-80
2021/12/11 09:58:08;;;;;;;18.83;6.32;;;7.60;85.80;;;;;;5027916;28;20190;-80
2021/12/11 10:00:48;;;;;;;19.08;6.35;;;7.60;85.40;;;;;;5028948;28;20182;-80
2021/12/11 10:03:17;;;;;;;23.50;6.20;;;7.70;84.70;;;;;;5028966;28;20170;-81
2021/12/11 10:05:50;;;;;;;13.95;6.90;;;7.80;84.50;;;;;;5028695;28;20678;-80
2021/12/11 10:11:09;;;;;;;18.63;6.22;;;7.80;84.30;;;;;;5026641;28;20170;-80
2021/12/11 10:13:58;;;;;;;15.48;4.68;;;7.80;83.90;;;;;;5038699;28;20158;-80
2021/12/11 10:16:31;;;;;;;21.15;6.47;;;7.80;83.90;;;;;;5042268;28;20554;-80
2021/12/11 10:18:57;;;;;;;18.67;5.85;;;8.00;84.10;;;;;;5026172;28;20244;-81
2021/12/11 10:21:37;;;;;;;17.83;6.18;;;7.90;83.50;;;;;;5047691;28;20202;-80
2021/12/11 10:24:08;;;;;;;13.30;4.85;;;7.90;83.10;;;;;;5047364;28;20197;-80
2021/12/11 10:26:34;;;;;;;11.30;5.97;;;8.00;82.80;;;;;;5044396;28;20209;-80
2021/12/11 10:29:04;;;;;;;14.60;5.57;;;8.00;82.80;;;;;;5041967;28;20213;-80
2021/12/11 10:31:35;;;;;;;20.45;6.03;;;8.00;82.40;;;;;;5045990;28;20672;-80
2021/12/11 10:34:06;;;;;;;20.00;5.50;;;8.10;82.60;;;;;;5045166;28;20186;-80
2021/12/11 10:36:37;;;;;;;16.35;5.53;;;8.00;82.10;;;;;;5025267;28;20661;-80
2021/12/11 10:39:08;;;;;;;16.50;5.25;;;8.10;81.70;;;;;;5025510;28;20266;-79
2021/12/11 10:41:34;;;;;;;17.73;5.40;;;8.00;81.20;;;;;;5024838;28;20170;-79
2021/12/11 10:44:04;;;;;;;21.87;6.63;;;8.00;81.50;;;;;;5024255;28;20257;-80
2021/12/11 10:46:41;;;;;;;9.75;5.32;;;8.00;81.40;;;;;;5022550;28;20413;-80
2021/12/11 10:49:09;;;;;;;16.60;5.20;;;8.00;81.10;;;;;;5031798;28;20228;-80
2021/12/11 10:51:43;;;;;;;23.70;5.97;;;7.90;81.00;;;;;;5042605;28;20185;-80
2021/12/11 10:54:10;;;;;;;14.23;5.88;;;7.80;80.90;;;;;;5022280;28;20613;-80
2021/12/11 10:56:37;;;;;;;13.57;5.53;;;7.80;81.10;;;;;;5021818;28;20187;-80
2021/12/11 10:59:25;;;;;;;18.10;6.05;;;7.80;81.30;;;;;;5023918;28;20193;-80
2021/12/11 11:01:59;;;;;;;17.63;5.85;;;7.80;81.40;;;;;;5049358;28;20217;-79
2021/12/11 11:04:29;;;;;;;16.75;6.53;;;7.70;81.40;;;;;;5034379;28;20218;-79
2021/12/11 11:06:56;;;;;;;15.10;6.25;;;7.80;81.40;;;;;;5036452;28;20177;-80
2021/12/11 11:09:23;;;;;;;14.75;5.50;;;7.80;81.40;;;;;;5029421;28;20206;-80
2021/12/11 11:11:52;;;;;;;14.68;6.15;;;7.80;81.40;;;;;;5028191;28;20178;-79
2021/12/11 11:14:19;;;;;;;13.57;5.13;;;7.80;81.40;;;;;;5043149;28;20221;-79
2021/12/11 11:16:51;;;;;;;13.07;5.40;;;7.90;81.70;;;;;;5052078;28;20277;-80
2021/12/11 11:19:23;;;;;;;12.15;5.85;;;7.80;81.50;;;;;;5047370;28;20194;-79
2021/12/11 11:21:57;;;;;;;19.15;7.07;;;7.90;81.80;;;;;;5046288;28;20192;-79
2021/12/11 11:24:36;;;;;;;14.20;7.53;;;8.00;81.80;;;;;;5047095;28;20198;-78
2021/12/11 11:27:03;;;;;;;19.58;5.80;;;8.10;81.70;;;;;;5043646;28;20680;-79
2021/12/11 11:29:30;;;;;;;13.98;5.95;;;7.90;81.00;;;;;;5023939;28;20217;-79
2021/12/11 11:32:04;;;;;;;14.75;5.63;;;7.90;81.30;;;;;;5021892;28;20740;-78
2021/12/11 11:34:31;;;;;;;16.48;5.88;;;8.00;81.40;;;;;;5020579;28;20224;-80
2021/12/11 11:36:59;;;;;;;17.00;5.55;;;8.10;81.50;;;;;;5018972;28;20179;-80
2021/12/11 11:39:26;;;;;;;20.85;5.43;;;8.00;81.10;;;;;;5020342;28;20182;-79
2021/12/11 11:41:59;;;;;;;18.95;7.18;;;8.10;81.20;;;;;;5021646;28;20320;-79
2021/12/11 11:44:27;;;;;;;13.18;5.43;;;8.20;81.10;;;;;;5020157;28;20210;-80
2021/12/11 11:46:57;;;;;;;15.95;5.57;;;8.10;81.10;;;;;;5017744;28;20182;-80
2021/12/11 11:49:23;;;;;;;11.25;4.90;;;8.20;81.10;;;;;;5031356;28;20202;-79
2021/12/11 11:51:56;;;;;;;18.25;5.90;;;8.20;81.10;;;;;;5040135;28;20708;-81
2021/12/11 11:54:24;;;;;;;11.57;5.50;;;8.20;80.40;;;;;;5039391;28;20201;-80
2021/12/11 11:56:57;;;;;;;13.55;5.22;;;8.30;80.50;;;;;;5038938;28;20227;-80
2021/12/11 11:59:22;;;;;;;16.80;6.30;;;8.30;80.50;;;;;;5038193;28;20178;-80
2021/12/11 12:02:01;;;;;;;16.13;6.13;;;8.40;80.50;;;;;;5037483;28;20185;-80
2021/12/11 12:04:30;;;;;;;13.07;4.90;;;8.50;80.80;;;;;;5020215;28;20956;-81
2021/12/11 12:07:02;;;;;;;15.23;6.13;;;8.50;80.70;;;;;;5019254;28;20198;-80
2021/12/11 12:09:31;;;;;;;13.10;6.55;;;8.60;80.40;;;;;;5002744;28;20206;-80
2021/12/11 12:12:00;;;;;;;11.88;5.90;;;8.60;80.30;;;;;;5018267;28;20183;-80
2021/12/11 12:14:31;;;;;;;14.23;6.47;;;8.70;80.10;;;;;;5038013;28;20217;-80
2021/12/11 12:16:58;;;;;;;18.90;5.57;;;8.70;80.10;;;;;;5024687;28;20204;-81
2021/12/11 12:19:25;;;;;;;24.30;7.30;;;8.90;79.60;;;;;;5021181;28;20171;-81
2021/12/11 12:21:56;;;;;;;14.93;6.40;;;8.90;79.60;;;;;;5017721;28;20218;-81
2021/12/11 12:24:25;;;;;;;20.20;6.03;;;9.00;79.30;;;;;;5017920;28;20574;-81
2021/12/11 12:26:52;;;;;;;8.77;4.60;;;9.00;78.90;;;;;;5039331;28;20585;-80
2021/12/11 12:29:19;;;;;;;16.52;6.47;;;9.20;78.70;;;;;;5021087;28;20201;-80
2021/12/11 12:31:52;;;;;;;15.18;5.25;;;9.00;77.90;;;;;;5019045;28;20638;-81
2021/12/11 12:34:20;;;;;;;19.65;6.20;;;9.00;77.80;;;;;;5017137;28;20201;-80
2021/12/11 12:36:46;;;;;;;11.63;5.63;;;8.90;77.60;;;;;;5022212;28;20603;-80
2021/12/11 12:39:14;;;;;;;16.05;4.90;;;9.00;77.70;;;;;;5023756;28;20554;-80
2021/12/11 12:41:53;;;;;;;11.30;4.65;;;9.10;77.60;;;;;;5036764;28;20197;-80
2021/12/11 12:44:21;;;;;;;11.75;5.15;;;9.00;77.30;;;;;;5037682;28;20198;-80
2021/12/11 12:47:11;;;;;;;8.80;4.43;;;8.90;76.80;;;;;;5036957;28;20182;-80
2021/12/11 12:49:40;;;;;;;8.73;4.53;;;8.90;76.70;;;;;;5036093;28;20182;-80
2021/12/11 12:52:12;;;;;;;10.50;4.90;;;8.90;76.90;;;;;;5035764;28;20185;-81
2021/12/11 12:54:39;;;;;;;9.07;4.70;;;8.90;77.00;;;;;;5017743;28;20225;-81
2021/12/11 12:57:18;;;;;;;14.25;5.43;;;8.90;76.90;;;;;;5017681;28;20189;-81
2021/12/11 12:59:56;;;;;;;16.88;5.90;;;8.80;76.70;;;;;;5001388;28;20222;-82
2021/12/11 13:02:25;;;;;;;13.15;4.85;;;8.80;76.80;;;;;;5024501;28;20251;-79
2021/12/11 13:04:56;;;;;;;14.32;3.83;;;8.60;76.80;;;;;;5019767;28;20202;-79
2021/12/11 13:07:22;;;;;;;7.97;4.50;;;8.50;78.00;;;;;;5019283;28;20208;-79
2021/12/11 13:10:12;;;;;;;12.60;4.40;;;8.60;77.60;;;;;;5035411;28;20274;-81
2021/12/11 13:12:42;;;;;;;23.05;4.22;;;8.70;77.40;;;;;;5028604;28;20594;-81
2021/12/11 13:15:21;;;;;;;14.90;4.40;;;8.70;77.20;;;;;;5035680;28;20252;-82
2021/12/11 13:17:51;;;;;;;6.18;4.03;;;8.70;77.10;;;;;;5033563;28;20637;-81
2021/12/11 13:20:23;;;;;;;18.73;3.85;;;8.80;76.70;;;;;;5018266;28;20213;-81
2021/12/11 13:22:51;;;;;;;15.10;4.57;;;8.70;76.30;;;;;;5020120;28;20210;-81
2021/12/11 13:25:31;;;;;;;10.23;3.70;;;8.60;76.30;;;;;;5026340;28;20205;-81
2021/12/11 13:27:59;;;;;;;14.00;3.45;;;8.40;76.30;;;;;;5037601;28;20205;-81